createdAt,value
2022-09-18T00:02:10.788Z,12.68
2022-09-18T00:04:36.269Z,6.45
2022-09-18T00:06:59.839Z,5.57
2022-09-18T00:09:23.530Z,5.90
2022-09-18T00:11:49.379Z,10.45
2022-09-18T00:14:16.162Z,7.43
2022-09-18T00:16:40.743Z,10.20
2022-09-18T00:19:04.794Z,6.53
2022-09-18T00:21:31.879Z,7.38
2022-09-18T00:23:58.241Z,6.85
2022-09-18T00:26:22.785Z,7.10
2022-09-18T00:28:46.691Z,4.43
2022-09-18T00:31:13.858Z,8.63
2022-09-18T00:33:39.454Z,9.30
2022-09-18T00:36:04.110Z,6.55
2022-09-18T00:38:30.293Z,6.97
2022-09-18T00:40:53.680Z,9.13
2022-09-18T00:43:22.504Z,6.25
2022-09-18T00:45:54.131Z,5.72
2022-09-18T00:48:18.720Z,6.93
2022-09-18T00:50:42.288Z,9.05
2022-09-18T00:53:06.825Z,5.63
2022-09-18T00:55:38.124Z,5.90
2022-09-18T00:58:04.451Z,5.78
2022-09-18T01:00:28.019Z,3.72
2022-09-18T01:02:51.748Z,6.60
2022-09-18T01:05:18.801Z,9.18
2022-09-18T01:07:59.131Z,9.25
2022-09-18T01:10:39.935Z,6.15
2022-09-18T01:13:12.402Z,8.73
2022-09-18T01:15:47.473Z,7.80
2022-09-18T01:18:20.068Z,8.98
2022-09-18T01:21:13.172Z,8.40
2022-09-18T01:24:13.771Z,7.75
2022-09-18T01:26:54.328Z,8.25
2022-09-18T01:29:31.542Z,4.97
2022-09-18T01:32:01.972Z,8.60
2022-09-18T01:34:31.876Z,6.47
2022-09-18T01:37:02.921Z,8.05
2022-09-18T01:39:33.065Z,8.25
2022-09-18T01:41:58.461Z,5.07
2022-09-18T01:44:28.203Z,9.93
2022-09-18T01:46:57.823Z,4.32
2022-09-18T01:49:28.379Z,3.35
2022-09-18T01:51:57.026Z,6.93
2022-09-18T01:54:26.600Z,4.88
2022-09-18T01:56:54.928Z,6.15
2022-09-18T01:59:25.725Z,7.35
2022-09-18T02:02:02.130Z,5.57
2022-09-18T02:04:31.902Z,6.20
2022-09-18T02:07:06.242Z,8.43
2022-09-18T02:09:31.101Z,10.88
2022-09-18T02:11:58.572Z,8.05
2022-09-18T02:14:27.364Z,5.10
2022-09-18T02:17:17.789Z,6.88
2022-09-18T02:19:44.801Z,5.55
2022-09-18T02:22:12.085Z,8.35
2022-09-18T02:24:40.514Z,4.78
2022-09-18T02:27:08.362Z,6.63
2022-09-18T02:29:33.923Z,7.35
2022-09-18T02:31:57.505Z,8.02
2022-09-18T02:34:22.332Z,7.25
2022-09-18T02:37:12.506Z,8.30
2022-09-18T02:39:52.401Z,7.72
2022-09-18T02:42:36.944Z,7.90
2022-09-18T02:45:10.744Z,5.90
2022-09-18T02:48:14.159Z,9.27
2022-09-18T02:50:51.498Z,6.13
2022-09-18T02:53:26.227Z,6.45
2022-09-18T02:55:57.219Z,5.65
2022-09-18T02:58:29.670Z,7.57
2022-09-18T03:00:58.298Z,12.20
2022-09-18T03:03:28.485Z,6.78
2022-09-18T03:05:58.768Z,6.80
2022-09-18T03:08:22.363Z,6.40
2022-09-18T03:10:45.852Z,5.90
2022-09-18T03:13:09.320Z,5.57
2022-09-18T03:15:33.114Z,8.50
2022-09-18T03:17:58.180Z,7.22
2022-09-18T03:20:21.698Z,5.60
2022-09-18T03:22:45.779Z,8.90
2022-09-18T03:25:12.419Z,6.38
2022-09-18T03:27:36.542Z,7.38
2022-09-18T03:30:00.045Z,4.95
2022-09-18T03:32:23.602Z,5.95
2022-09-18T03:34:50.239Z,7.80
2022-09-18T03:37:13.734Z,7.40
2022-09-18T03:39:37.379Z,7.53
2022-09-18T03:42:02.994Z,7.95
2022-09-18T03:44:28.209Z,6.57
2022-09-18T03:46:54.154Z,6.57
2022-09-18T03:49:17.772Z,5.60
2022-09-18T03:51:42.961Z,7.22
2022-09-18T03:54:06.718Z,6.85
2022-09-18T03:56:45.187Z,6.78
2022-09-18T03:59:32.188Z,5.65
2022-09-18T04:01:55.866Z,6.85
2022-09-18T04:04:28.687Z,5.50
2022-09-18T04:07:12.136Z,4.47
2022-09-18T04:10:05.176Z,8.60
2022-09-18T04:12:29.080Z,5.13
2022-09-18T04:15:12.831Z,7.18
2022-09-18T04:17:36.394Z,5.00
2022-09-18T04:20:00.127Z,3.85
2022-09-18T04:22:25.114Z,5.05
2022-09-18T04:24:50.486Z,7.43
2022-09-18T04:27:15.034Z,6.60
2022-09-18T04:29:38.494Z,7.50
2022-09-18T04:32:05.458Z,5.40
2022-09-18T04:34:28.934Z,7.40
2022-09-18T04:36:52.450Z,6.43
2022-09-18T04:39:17.707Z,6.25
2022-09-18T04:41:41.293Z,8.15
2022-09-18T04:44:05.093Z,10.45
2022-09-18T04:46:28.770Z,9.55
2022-09-18T04:48:52.318Z,7.10
2022-09-18T04:51:19.774Z,7.55
2022-09-18T04:53:45.313Z,6.75
2022-09-18T04:56:10.440Z,13.82
2022-09-18T04:58:36.340Z,10.18
2022-09-18T05:01:00.458Z,8.93
2022-09-18T05:03:25.079Z,9.98
2022-09-18T05:05:49.391Z,12.48
2022-09-18T05:08:14.137Z,7.45
2022-09-18T05:10:37.716Z,8.75
2022-09-18T05:13:06.432Z,9.18
2022-09-18T05:15:35.274Z,10.20
2022-09-18T05:18:05.558Z,8.63
2022-09-18T05:20:34.024Z,10.63
2022-09-18T05:23:02.270Z,10.77
2022-09-18T05:25:29.043Z,5.97
2022-09-18T05:27:57.802Z,9.77
2022-09-18T05:30:27.487Z,6.78
2022-09-18T05:33:04.223Z,7.57
2022-09-18T05:35:30.790Z,6.80
2022-09-18T05:38:10.573Z,6.72
2022-09-18T05:40:39.622Z,7.60
2022-09-18T05:43:03.927Z,8.93
2022-09-18T05:45:30.608Z,7.13
2022-09-18T05:47:56.894Z,5.63
2022-09-18T05:50:21.393Z,6.43
2022-09-18T05:52:46.048Z,7.43
2022-09-18T05:55:10.556Z,9.98
2022-09-18T05:57:38.212Z,8.13
2022-09-18T06:00:01.864Z,8.00
2022-09-18T06:02:26.883Z,6.57
2022-09-18T06:04:58.410Z,8.73
2022-09-18T06:07:21.948Z,6.68
2022-09-18T06:09:45.423Z,10.35
2022-09-18T06:12:09.452Z,8.18
2022-09-18T06:14:34.465Z,6.32
2022-09-18T06:17:00.246Z,8.48
2022-09-18T06:19:25.260Z,9.80
2022-09-18T06:21:49.414Z,6.55
2022-09-18T06:24:15.592Z,7.07
2022-09-18T06:26:50.155Z,9.18
2022-09-18T06:29:13.782Z,7.22
2022-09-18T06:31:47.681Z,5.75
2022-09-18T06:34:20.958Z,6.18
2022-09-18T06:48:34.067Z,4.93
2022-09-18T06:51:00.272Z,3.15
2022-09-18T06:53:29.254Z,3.38
2022-09-18T06:56:02.854Z,2.13
2022-09-18T06:58:32.114Z,2.88
2022-09-18T07:03:17.428Z,3.47
2022-09-18T07:06:01.225Z,2.55
2022-09-18T07:09:14.491Z,4.05
2022-09-18T07:11:50.428Z,2.25
2022-09-18T07:14:14.568Z,6.43
2022-09-18T07:16:38.350Z,4.30
2022-09-18T07:19:05.110Z,3.17
2022-09-18T07:21:28.926Z,5.65
2022-09-18T07:23:52.566Z,3.00
2022-09-18T07:26:19.128Z,8.32
2022-09-18T07:28:46.593Z,6.47
2022-09-18T07:31:17.332Z,8.43
2022-09-18T07:33:42.250Z,6.43
2022-09-18T07:36:11.883Z,4.60
2022-09-18T07:38:35.415Z,8.57
2022-09-18T07:41:02.990Z,5.18
2022-09-18T07:43:31.032Z,7.38
2022-09-18T07:45:56.138Z,6.13
2022-09-18T07:48:20.317Z,7.20
2022-09-18T07:50:47.496Z,7.32
2022-09-18T07:53:13.946Z,6.70
2022-09-18T07:55:38.458Z,7.07
2022-09-18T07:58:05.363Z,6.18
2022-09-18T08:00:52.922Z,6.15
2022-09-18T08:03:18.696Z,6.15
2022-09-18T08:06:00.956Z,5.93
2022-09-18T08:08:26.787Z,9.32
2022-09-18T08:11:22.700Z,5.63
2022-09-18T08:14:17.963Z,5.82
2022-09-18T08:16:58.157Z,6.95
2022-09-18T08:19:33.486Z,4.88
2022-09-18T08:22:11.378Z,5.97
2022-09-18T08:24:42.851Z,7.45
2022-09-18T08:27:07.016Z,6.15
2022-09-18T08:29:30.826Z,6.80
2022-09-18T08:32:00.954Z,4.18
2022-09-18T08:34:24.773Z,4.82
2022-09-18T08:36:48.437Z,5.95
2022-09-18T08:39:32.199Z,7.55
2022-09-18T08:42:25.778Z,5.72
2022-09-18T08:44:53.545Z,5.63
2022-09-18T08:47:24.708Z,4.43
2022-09-18T08:49:54.731Z,6.03
2022-09-18T08:52:22.954Z,4.32
2022-09-18T08:54:59.399Z,7.47
2022-09-18T08:57:32.207Z,5.10
2022-09-18T09:00:09.553Z,7.38
2022-09-18T09:02:43.842Z,7.35
2022-09-18T09:05:12.540Z,8.07
2022-09-18T09:08:12.186Z,5.85
2022-09-18T09:10:51.938Z,6.43
2022-09-18T09:14:10.832Z,8.95
2022-09-18T09:16:44.228Z,5.60
2022-09-18T09:19:28.359Z,7.95
2022-09-18T09:22:01.766Z,6.22
2022-09-18T09:24:34.147Z,5.78
2022-09-18T09:27:07.164Z,8.40
2022-09-18T09:29:59.956Z,6.47
2022-09-18T09:32:51.035Z,5.13
2022-09-18T09:35:32.561Z,8.63
2022-09-18T09:38:17.680Z,5.25
2022-09-18T09:40:46.428Z,5.53
2022-09-18T09:43:21.203Z,6.00
2022-09-18T09:45:50.205Z,7.57
2022-09-18T09:48:22.619Z,7.00
2022-09-18T09:50:54.886Z,3.58
2022-09-18T09:53:19.791Z,3.83
2022-09-18T09:55:54.451Z,4.45
2022-09-18T09:58:35.088Z,4.10
2022-09-18T10:01:09.354Z,4.25
2022-09-18T10:03:56.618Z,3.90
2022-09-18T10:06:37.776Z,4.50
2022-09-18T10:09:11.014Z,3.47
2022-09-18T10:11:39.054Z,4.45
2022-09-18T10:14:07.759Z,3.42
2022-09-18T10:16:37.574Z,4.05
2022-09-18T10:19:05.649Z,5.97
2022-09-18T10:21:35.653Z,4.30
2022-09-18T10:24:17.238Z,3.97
2022-09-18T10:26:47.404Z,5.53
2022-09-18T10:29:12.110Z,5.90
2022-09-18T10:31:51.629Z,4.53
2022-09-18T10:34:35.647Z,5.78
2022-09-18T10:36:59.320Z,6.07
2022-09-18T10:39:31.566Z,6.57
2022-09-18T10:42:01.580Z,5.60
2022-09-18T10:44:28.949Z,5.88
2022-09-18T10:47:09.144Z,4.55
2022-09-18T10:49:40.795Z,5.35
2022-09-18T10:52:28.512Z,4.68
2022-09-18T10:55:17.408Z,7.03
2022-09-18T10:58:06.717Z,7.95
2022-09-18T11:00:43.690Z,5.82
2022-09-18T11:03:37.649Z,8.77
2022-09-18T11:06:04.769Z,6.25
2022-09-18T11:08:33.806Z,4.43
2022-09-18T11:11:05.276Z,4.47
2022-09-18T11:13:32.475Z,6.78
2022-09-18T11:15:59.550Z,3.22
2022-09-18T11:18:27.655Z,5.03
2022-09-18T11:20:53.016Z,2.72
2022-09-18T11:23:29.746Z,3.85
2022-09-18T11:26:20.302Z,5.60
2022-09-18T11:28:44.704Z,9.35
2022-09-18T11:31:18.263Z,5.45
2022-09-18T11:33:51.537Z,5.45
2022-09-18T11:36:29.969Z,6.53
2022-09-18T11:38:55.319Z,4.20
2022-09-18T11:41:25.422Z,4.15
2022-09-18T11:44:02.087Z,3.03
2022-09-18T11:46:41.616Z,4.30
2022-09-18T11:49:12.883Z,5.20
2022-09-18T11:51:51.058Z,6.28
2022-09-18T11:54:28.008Z,5.18
2022-09-18T11:56:56.591Z,4.70
2022-09-18T11:59:28.741Z,8.40
2022-09-18T12:01:58.642Z,5.57
2022-09-18T12:04:37.760Z,5.15
2022-09-18T12:07:13.725Z,5.55
2022-09-18T12:09:44.713Z,6.28
2022-09-18T12:12:14.811Z,3.70
2022-09-18T12:14:45.798Z,3.55
2022-09-18T12:17:21.484Z,2.13
2022-09-18T12:19:53.586Z,3.92
2022-09-18T12:22:25.025Z,5.05
2022-09-18T12:24:48.882Z,5.00
2022-09-18T12:27:27.913Z,2.88
2022-09-18T12:30:10.543Z,4.10
2022-09-18T12:33:13.549Z,5.60
2022-09-18T12:36:01.341Z,2.05
2022-09-18T12:38:45.657Z,2.70
2022-09-18T12:41:29.644Z,3.33
2022-09-18T12:44:21.876Z,3.08
2022-09-18T12:47:02.251Z,2.95
2022-09-18T12:49:46.133Z,4.50
2022-09-18T12:52:27.776Z,1.98
2022-09-18T12:55:23.840Z,3.38
2022-09-18T12:58:09.016Z,3.35
2022-09-18T13:00:32.711Z,3.45
2022-09-18T13:03:03.041Z,3.83
2022-09-18T13:05:34.052Z,5.18
2022-09-18T13:08:08.060Z,2.30
2022-09-18T13:10:38.613Z,2.55
2022-09-18T13:13:13.902Z,3.95
2022-09-18T13:15:43.201Z,7.78
2022-09-18T13:18:22.322Z,2.50
2022-09-18T13:20:47.344Z,2.65
2022-09-18T13:23:19.317Z,5.85
2022-09-18T13:25:43.393Z,5.70
2022-09-18T13:28:13.368Z,5.40
2022-09-18T13:30:37.378Z,4.78
2022-09-18T13:33:03.302Z,5.90
2022-09-18T13:35:30.553Z,5.97
2022-09-18T13:38:18.761Z,5.32
2022-09-18T13:40:45.326Z,4.57
2022-09-18T13:43:45.646Z,5.57
2022-09-18T13:46:30.190Z,6.80
2022-09-18T13:48:56.653Z,2.97
2022-09-18T13:51:24.116Z,5.40
2022-09-18T13:53:52.219Z,5.10
2022-09-18T13:56:18.491Z,4.53
2022-09-18T13:59:00.644Z,5.32
2022-09-18T14:02:01.578Z,6.38
2022-09-18T14:05:07.222Z,4.15
2022-09-18T14:07:58.297Z,4.82
2022-09-18T14:10:31.297Z,2.78
2022-09-18T14:13:38.944Z,4.57
2022-09-18T14:16:09.195Z,4.13
2022-09-18T14:18:40.608Z,4.82
2022-09-18T14:21:25.242Z,4.18
2022-09-18T14:24:42.036Z,3.60
2022-09-18T14:27:48.769Z,2.70
2022-09-18T14:30:22.286Z,3.85
2022-09-18T14:33:07.629Z,3.33
2022-09-18T14:35:45.067Z,3.72
2022-09-18T14:38:28.837Z,2.88
2022-09-18T14:40:59.733Z,4.03
2022-09-18T14:43:26.606Z,1.95
2022-09-18T14:45:51.544Z,2.13
2022-09-18T14:48:27.390Z,6.55
2022-09-18T14:51:08.937Z,3.90
2022-09-18T14:53:42.724Z,4.13
2022-09-18T14:56:13.609Z,3.78
2022-09-18T14:58:40.974Z,2.97
2022-09-18T15:01:07.459Z,5.68
2022-09-18T15:03:35.571Z,6.57
2022-09-18T15:06:10.879Z,5.65
2022-09-18T15:08:34.856Z,3.97
2022-09-18T15:11:00.668Z,4.90
2022-09-18T15:13:24.799Z,3.75
2022-09-18T15:15:59.619Z,3.03
2022-09-18T15:18:27.472Z,2.63
2022-09-18T15:20:53.176Z,1.98
2022-09-18T15:23:23.053Z,4.65
2022-09-18T15:25:51.052Z,2.35
2022-09-18T15:28:14.721Z,1.88
2022-09-18T15:30:39.185Z,2.85
2022-09-18T15:33:08.112Z,3.85
2022-09-18T15:35:35.749Z,4.00
2022-09-18T15:38:03.677Z,2.92
2022-09-18T15:40:30.442Z,2.75
2022-09-18T15:42:58.346Z,3.17
2022-09-18T15:45:24.215Z,3.28
2022-09-18T15:47:48.967Z,2.97
2022-09-18T15:50:43.146Z,2.80
2022-09-18T15:53:26.076Z,3.63
2022-09-18T15:56:01.245Z,5.47
2022-09-18T15:58:44.171Z,6.22
2022-09-18T16:01:16.327Z,3.30
2022-09-18T16:03:40.697Z,1.80
2022-09-18T16:06:08.569Z,3.60
2022-09-18T16:08:36.781Z,2.65
2022-09-18T16:11:02.207Z,3.03
2022-09-18T16:13:37.357Z,2.72
2022-09-18T16:16:26.531Z,4.65
2022-09-18T16:18:55.549Z,9.05
2022-09-18T16:21:21.245Z,3.85
2022-09-18T16:23:50.635Z,3.47
2022-09-18T16:26:16.888Z,3.22
2022-09-18T16:28:44.999Z,4.75
2022-09-18T16:31:08.586Z,4.90
2022-09-18T16:33:34.515Z,4.15
2022-09-18T16:36:02.799Z,5.55
2022-09-18T16:38:27.683Z,4.15
2022-09-18T16:40:51.195Z,3.92
2022-09-18T16:43:14.575Z,3.17
2022-09-18T16:45:38.761Z,4.32
2022-09-18T16:48:02.394Z,6.18
2022-09-18T16:50:26.158Z,3.88
2022-09-18T16:52:49.798Z,5.00
2022-09-18T16:55:15.341Z,3.15
2022-09-18T16:57:40.137Z,4.18
2022-09-18T17:00:08.016Z,4.82
2022-09-18T17:02:31.652Z,2.67
2022-09-18T17:04:55.312Z,1.58
2022-09-18T17:07:18.826Z,3.15
2022-09-18T17:09:42.286Z,2.25
2022-09-18T17:12:07.683Z,0.80
2022-09-18T17:14:31.314Z,2.35
2022-09-18T17:16:55.021Z,1.77
2022-09-18T17:19:19.017Z,1.88
2022-09-18T17:21:42.638Z,2.45
2022-09-18T17:24:06.995Z,2.58
2022-09-18T17:26:33.813Z,2.75
2022-09-18T17:28:59.020Z,1.98
2022-09-18T17:31:22.541Z,1.42
2022-09-18T17:33:47.107Z,1.55
2022-09-18T17:36:14.335Z,1.85
2022-09-18T17:38:38.360Z,1.73
2022-09-18T17:41:05.558Z,1.58
2022-09-18T17:43:29.511Z,2.15
2022-09-18T17:45:57.223Z,1.75
2022-09-18T17:48:20.873Z,2.25
2022-09-18T17:50:44.798Z,6.10
2022-09-18T17:53:08.925Z,5.88
2022-09-18T17:55:35.122Z,2.35
2022-09-18T17:57:58.648Z,2.70
2022-09-18T18:00:22.109Z,1.45
2022-09-18T18:02:46.992Z,2.20
2022-09-18T18:05:10.678Z,2.53
2022-09-18T18:07:34.206Z,2.78
2022-09-18T18:09:57.753Z,1.92
2022-09-18T18:12:21.216Z,3.15
2022-09-18T18:14:44.734Z,4.55
2022-09-18T18:17:08.633Z,3.28
2022-09-18T18:19:33.524Z,3.42
2022-09-18T18:21:56.996Z,4.55
2022-09-18T18:24:20.972Z,3.45
2022-09-18T18:26:45.829Z,5.63
2022-09-18T18:29:11.422Z,3.05
2022-09-18T18:31:35.081Z,3.15
2022-09-18T18:33:59.086Z,3.55
2022-09-18T18:36:25.932Z,2.80
2022-09-18T18:38:53.123Z,3.20
2022-09-18T18:41:19.567Z,5.63
2022-09-18T18:43:44.816Z,4.05
2022-09-18T18:46:12.446Z,4.00
2022-09-18T18:48:36.891Z,4.57
2022-09-18T18:51:00.625Z,4.15
2022-09-18T18:53:25.545Z,3.58
2022-09-18T18:55:49.311Z,5.20
2022-09-18T18:58:13.142Z,3.05
2022-09-18T19:00:36.727Z,4.30
2022-09-18T19:03:02.528Z,2.65
2022-09-18T19:05:30.350Z,2.10
2022-09-18T19:07:53.830Z,3.38
2022-09-18T19:10:19.225Z,4.05
2022-09-18T19:12:42.720Z,4.68
2022-09-18T19:15:07.301Z,4.95
2022-09-18T19:17:30.692Z,3.90
2022-09-18T19:19:54.489Z,4.32
2022-09-18T19:22:18.905Z,2.85
2022-09-18T19:24:42.569Z,2.50
2022-09-18T19:27:07.687Z,3.00
2022-09-18T19:29:31.602Z,2.10
2022-09-18T19:31:55.332Z,2.38
2022-09-18T19:34:21.533Z,2.08
2022-09-18T19:36:50.136Z,2.95
2022-09-18T19:39:14.697Z,3.65
2022-09-18T19:41:43.087Z,7.05
2022-09-18T19:44:14.015Z,4.47
2022-09-18T19:46:38.107Z,4.32
2022-09-18T19:49:01.827Z,4.15
2022-09-18T19:51:25.620Z,3.20
2022-09-18T19:53:49.068Z,2.67
2022-09-18T19:56:27.796Z,2.33
2022-09-18T19:58:56.201Z,4.03
2022-09-18T20:01:21.207Z,3.50
2022-09-18T20:03:44.667Z,3.22
2022-09-18T20:06:09.023Z,4.03
2022-09-18T20:08:32.608Z,3.58
2022-09-18T20:10:56.723Z,3.97
2022-09-18T20:13:20.142Z,3.90
2022-09-18T20:15:45.388Z,6.07
2022-09-18T20:18:10.288Z,3.92
2022-09-18T20:20:37.366Z,4.00
2022-09-18T20:23:00.939Z,3.10
2022-09-18T20:25:26.164Z,3.92
2022-09-18T20:27:49.903Z,6.82
2022-09-18T20:30:14.219Z,4.93
2022-09-18T20:32:37.818Z,3.25
2022-09-18T20:35:03.757Z,2.70
2022-09-18T20:37:32.959Z,2.90
2022-09-18T20:39:56.571Z,3.60
2022-09-18T20:42:20.207Z,2.47
2022-09-18T20:44:43.772Z,3.95
2022-09-18T20:47:07.907Z,5.53
2022-09-18T20:49:32.463Z,4.97
2022-09-18T20:51:57.497Z,5.45
2022-09-18T20:54:22.967Z,4.47
2022-09-18T20:56:46.569Z,6.93
2022-09-18T20:59:12.029Z,5.15
2022-09-18T21:01:37.954Z,3.75
2022-09-18T21:04:03.545Z,7.20
2022-09-18T21:06:31.741Z,5.03
2022-09-18T21:08:57.256Z,5.38
2022-09-18T21:11:24.264Z,6.45
2022-09-18T21:13:48.463Z,6.80
2022-09-18T21:16:12.253Z,4.15
2022-09-18T21:18:36.445Z,8.23
2022-09-18T21:21:04.784Z,9.15
2022-09-18T21:23:48.286Z,4.38
2022-09-18T21:26:17.511Z,4.35
2022-09-18T21:28:41.241Z,6.25
2022-09-18T21:31:11.638Z,3.10
2022-09-18T21:33:36.585Z,8.32
2022-09-18T21:35:59.975Z,7.95
2022-09-18T21:38:23.468Z,8.43
2022-09-18T21:40:47.078Z,4.53
2022-09-18T21:43:14.293Z,3.35
2022-09-18T21:45:38.017Z,6.10
2022-09-18T21:48:06.227Z,7.88
2022-09-18T21:50:29.667Z,7.40
2022-09-18T21:52:53.307Z,5.38
2022-09-18T21:55:16.983Z,8.60
2022-09-18T21:57:40.511Z,5.65
2022-09-18T22:00:08.764Z,7.65
2022-09-18T22:02:36.404Z,9.35
2022-09-18T22:05:01.106Z,10.15
2022-09-18T22:07:25.211Z,8.00
2022-09-18T22:09:49.001Z,7.18
2022-09-18T22:12:12.936Z,9.13
2022-09-18T22:14:38.378Z,7.95
2022-09-18T22:17:06.827Z,7.78
2022-09-18T22:19:30.702Z,7.57
2022-09-18T22:21:54.391Z,7.53
2022-09-18T22:24:20.730Z,5.55
2022-09-18T22:26:47.891Z,5.32
2022-09-18T22:29:17.232Z,8.88
2022-09-18T22:31:40.723Z,4.63
2022-09-18T22:34:06.210Z,9.27
2022-09-18T22:36:30.177Z,10.38
2022-09-18T22:38:54.527Z,11.40
2022-09-18T22:41:18.736Z,7.07
2022-09-18T22:43:42.421Z,10.43
2022-09-18T22:46:07.361Z,7.35
2022-09-18T22:48:33.829Z,7.13
2022-09-18T22:51:06.885Z,10.73
2022-09-18T22:53:30.785Z,8.02
2022-09-18T22:55:54.198Z,11.40
2022-09-18T22:58:18.041Z,10.52
2022-09-18T23:00:41.583Z,10.75
2022-09-18T23:03:05.682Z,7.57
2022-09-18T23:05:29.275Z,9.27
2022-09-18T23:07:54.058Z,7.93
2022-09-18T23:10:17.918Z,8.55
2022-09-18T23:12:41.513Z,11.63
2022-09-18T23:15:09.447Z,9.50
2022-09-18T23:17:32.879Z,12.27
2022-09-18T23:19:56.334Z,12.02
2022-09-18T23:22:19.874Z,6.10
2022-09-18T23:24:44.728Z,6.97
2022-09-18T23:27:08.383Z,11.75
2022-09-18T23:29:32.877Z,7.32
2022-09-18T23:31:57.655Z,9.13
2022-09-18T23:34:23.544Z,11.52
2022-09-18T23:36:49.407Z,9.88
2022-09-18T23:39:17.397Z,8.05
2022-09-18T23:41:43.425Z,13.60
2022-09-18T23:44:09.289Z,8.23
2022-09-18T23:46:33.378Z,10.05
2022-09-18T23:48:56.881Z,9.35
2022-09-18T23:51:20.205Z,20.02
2022-09-18T23:53:43.806Z,10.02
2022-09-18T23:56:10.320Z,11.52
2022-09-18T23:58:35.723Z,10.05
